createdAt,value
2022-10-17T00:01:10.793Z,8.20
2022-10-17T00:03:39.808Z,14.00
2022-10-17T00:06:10.925Z,14.00
2022-10-17T00:08:41.067Z,15.70
2022-10-17T00:11:15.574Z,14.90
2022-10-17T00:13:44.075Z,27.50
2022-10-17T00:16:12.397Z,16.50
2022-10-17T00:18:40.982Z,16.40
2022-10-17T00:21:16.094Z,15.20
2022-10-17T00:23:44.137Z,15.70
2022-10-17T00:26:12.464Z,17.20
2022-10-17T00:28:40.556Z,16.90
2022-10-17T00:31:08.592Z,15.70
2022-10-17T00:33:36.922Z,16.30
2022-10-17T00:36:15.336Z,16.70
2022-10-17T00:38:45.868Z,10.50
2022-10-17T00:41:16.909Z,8.00
2022-10-17T00:43:56.617Z,14.50
2022-10-17T00:46:29.100Z,9.40
2022-10-17T00:48:59.215Z,13.20
2022-10-17T00:51:41.745Z,8.50
2022-10-17T00:54:11.754Z,9.00
2022-10-17T00:56:40.602Z,11.40
2022-10-17T00:59:11.096Z,12.00
2022-10-17T01:01:47.249Z,11.80
2022-10-17T01:04:15.851Z,8.90
2022-10-17T01:06:43.857Z,9.00
2022-10-17T01:09:11.871Z,14.60
2022-10-17T01:11:45.232Z,14.80
2022-10-17T01:14:43.862Z,12.70
2022-10-17T01:17:23.652Z,13.40
2022-10-17T01:20:12.971Z,8.70
2022-10-17T01:22:49.497Z,13.90
2022-10-17T01:25:36.529Z,15.40
2022-10-17T01:28:39.467Z,14.80
2022-10-17T01:31:16.637Z,14.50
2022-10-17T01:33:51.314Z,16.10
2022-10-17T01:36:50.198Z,15.30
2022-10-17T01:39:28.101Z,16.60
2022-10-17T01:42:10.340Z,17.70
2022-10-17T01:44:47.130Z,15.90
2022-10-17T01:47:20.189Z,17.50
2022-10-17T01:49:52.726Z,16.70
2022-10-17T01:54:56.999Z,14.10
2022-10-17T01:57:32.451Z,8.10
2022-10-17T02:00:02.811Z,9.00
2022-10-17T02:02:43.956Z,9.10
2022-10-17T02:05:12.706Z,7.80
2022-10-17T02:07:42.042Z,9.80
2022-10-17T02:10:25.938Z,11.90
2022-10-17T02:13:07.628Z,10.60
2022-10-17T02:16:40.279Z,11.40
2022-10-17T02:19:29.272Z,10.30
2022-10-17T02:22:31.490Z,9.90
2022-10-17T02:25:29.675Z,10.60
2022-10-17T02:28:13.625Z,11.60
2022-10-17T02:30:50.052Z,10.30
2022-10-17T02:33:31.011Z,11.80
2022-10-17T02:36:09.027Z,10.40
2022-10-17T02:38:39.353Z,9.70
2022-10-17T02:41:11.588Z,10.00
2022-10-17T02:43:40.093Z,9.10
2022-10-17T02:46:08.390Z,8.90
2022-10-17T02:48:44.309Z,11.30
2022-10-17T02:51:30.876Z,11.80
2022-10-17T02:54:17.088Z,7.20
2022-10-17T02:56:55.197Z,5.90
2022-10-17T02:59:26.740Z,12.00
2022-10-17T03:01:55.281Z,10.10
2022-10-17T03:04:23.559Z,7.90
2022-10-17T03:06:51.545Z,10.00
2022-10-17T03:09:19.803Z,8.20
2022-10-17T03:11:47.831Z,7.00
2022-10-17T03:14:15.988Z,6.00
2022-10-17T03:16:44.002Z,6.10
2022-10-17T03:19:11.879Z,7.60
2022-10-17T03:21:40.257Z,7.80
2022-10-17T03:24:08.701Z,12.90
2022-10-17T03:26:37.077Z,7.90
2022-10-17T03:29:05.941Z,10.80
2022-10-17T03:31:34.602Z,7.00
2022-10-17T03:34:03.662Z,7.10
2022-10-17T03:36:31.612Z,11.30
2022-10-17T03:38:59.564Z,6.20
2022-10-17T03:41:28.598Z,10.30
2022-10-17T03:43:56.579Z,8.00
2022-10-17T03:46:24.882Z,7.10
2022-10-17T03:48:53.636Z,12.20
2022-10-17T03:51:22.238Z,11.50
2022-10-17T03:53:54.113Z,13.20
2022-10-17T03:56:25.467Z,15.50
2022-10-17T03:59:00.552Z,9.10
2022-10-17T04:01:29.229Z,10.30
2022-10-17T04:03:57.946Z,10.50
2022-10-17T04:06:28.206Z,13.40
2022-10-17T04:08:56.279Z,9.00
2022-10-17T04:11:40.058Z,9.90
2022-10-17T04:14:10.029Z,12.50
2022-10-17T04:16:39.201Z,19.10
2022-10-17T04:19:13.913Z,16.70
2022-10-17T04:21:44.989Z,19.10
2022-10-17T04:24:13.122Z,13.60
2022-10-17T04:26:59.658Z,14.20
2022-10-17T04:29:29.960Z,14.90
2022-10-17T04:32:07.066Z,6.50
2022-10-17T04:34:40.968Z,8.60
2022-10-17T04:37:09.059Z,14.90
2022-10-17T04:39:37.868Z,15.20
2022-10-17T04:42:06.473Z,16.10
2022-10-17T04:44:35.811Z,20.10
2022-10-17T04:47:03.920Z,19.40
2022-10-17T04:49:32.318Z,14.80
2022-10-17T04:52:07.587Z,9.70
2022-10-17T04:54:46.326Z,16.30
2022-10-17T04:57:15.183Z,11.40
2022-10-17T04:59:48.013Z,15.50
2022-10-17T05:02:30.773Z,12.00
2022-10-17T05:04:59.928Z,17.80
2022-10-17T05:07:28.105Z,48.00
2022-10-17T05:10:05.725Z,24.80
2022-10-17T05:12:34.101Z,12.80
2022-10-17T05:15:02.176Z,15.80
2022-10-17T05:17:30.406Z,9.80
2022-10-17T05:19:59.250Z,18.90
2022-10-17T05:22:27.614Z,18.60
2022-10-17T05:24:57.081Z,21.80
2022-10-17T05:27:25.094Z,25.60
2022-10-17T05:29:53.161Z,15.70
2022-10-17T05:32:25.968Z,31.10
2022-10-17T05:34:54.293Z,31.90
2022-10-17T05:37:22.804Z,23.40
2022-10-17T05:39:52.558Z,16.00
2022-10-17T05:42:20.781Z,36.50
2022-10-17T05:44:49.188Z,25.60
2022-10-17T05:47:19.027Z,44.30
2022-10-17T05:49:52.116Z,46.20
2022-10-17T05:52:23.343Z,37.70
2022-10-17T05:55:12.709Z,27.70
2022-10-17T05:57:40.913Z,25.20
2022-10-17T06:00:13.639Z,19.30
2022-10-17T06:02:46.751Z,19.40
2022-10-17T06:05:16.939Z,16.70
2022-10-17T06:07:45.535Z,20.40
2022-10-17T06:10:16.647Z,16.80
2022-10-17T06:12:45.686Z,28.40
2022-10-17T06:15:13.738Z,20.40
2022-10-17T06:17:45.148Z,16.80
2022-10-17T06:20:13.098Z,14.20
2022-10-17T06:22:41.216Z,33.10
2022-10-17T06:25:15.101Z,17.40
2022-10-17T06:28:00.273Z,20.20
2022-10-17T06:30:30.761Z,18.10
2022-10-17T06:32:58.856Z,19.30
2022-10-17T06:35:26.907Z,16.70
2022-10-17T06:37:54.996Z,13.30
2022-10-17T06:40:23.726Z,25.30
2022-10-17T06:42:51.959Z,15.60
2022-10-17T06:45:40.201Z,17.00
2022-10-17T06:48:22.049Z,15.40
2022-10-17T06:51:12.212Z,11.30
2022-10-17T06:53:53.629Z,15.20
2022-10-17T06:56:45.721Z,15.30
2022-10-17T06:59:16.503Z,15.20
2022-10-17T07:01:52.655Z,14.80
2022-10-17T07:04:20.660Z,11.70
2022-10-17T07:06:48.663Z,9.70
2022-10-17T07:09:19.719Z,9.10
2022-10-17T07:11:47.951Z,9.80
2022-10-17T07:14:19.288Z,8.30
2022-10-17T07:16:50.109Z,14.80
2022-10-17T07:19:24.708Z,13.10
2022-10-17T07:21:54.110Z,13.60
2022-10-17T07:24:24.667Z,14.20
2022-10-17T07:29:35.176Z,14.90
2022-10-17T07:32:09.829Z,14.40
2022-10-17T07:34:38.176Z,16.10
2022-10-17T07:37:07.504Z,20.30
2022-10-17T07:39:37.688Z,23.10
2022-10-17T07:42:07.545Z,23.30
2022-10-17T07:44:35.981Z,23.40
2022-10-17T07:47:04.629Z,18.80
2022-10-17T07:49:32.654Z,22.40
2022-10-17T07:52:00.603Z,14.30
2022-10-17T07:54:28.697Z,22.60
2022-10-17T07:56:56.841Z,15.60
2022-10-17T07:59:24.902Z,20.80
2022-10-17T08:01:56.063Z,20.50
2022-10-17T08:04:24.408Z,19.20
2022-10-17T08:06:56.521Z,15.20
2022-10-17T08:09:33.625Z,14.50
2022-10-17T08:12:01.720Z,13.10
2022-10-17T08:14:29.628Z,12.60
2022-10-17T08:16:57.504Z,16.80
2022-10-17T08:19:25.552Z,13.90
2022-10-17T08:21:54.538Z,17.20
2022-10-17T08:24:22.627Z,14.60
2022-10-17T08:26:51.855Z,13.60
2022-10-17T08:29:20.297Z,11.00
2022-10-17T08:31:49.924Z,10.50
2022-10-17T08:34:19.184Z,12.60
2022-10-17T08:36:47.105Z,8.90
2022-10-17T08:39:15.208Z,8.50
2022-10-17T08:41:58.480Z,13.20
2022-10-17T08:44:48.239Z,9.80
2022-10-17T08:47:27.509Z,10.30
2022-10-17T08:50:00.789Z,13.10
2022-10-17T08:52:38.183Z,11.40
2022-10-17T08:55:16.676Z,12.30
2022-10-17T08:57:44.844Z,11.80
2022-10-17T09:00:21.648Z,11.40
2022-10-17T09:03:08.056Z,11.10
2022-10-17T09:05:53.752Z,12.50
2022-10-17T09:08:33.550Z,10.30
2022-10-17T09:11:29.805Z,9.10
2022-10-17T09:14:33.314Z,12.50
2022-10-17T09:17:23.067Z,10.30
2022-10-17T09:20:20.658Z,10.10
2022-10-17T09:22:51.287Z,10.20
2022-10-17T09:25:22.012Z,10.80
2022-10-17T09:27:54.656Z,11.40
2022-10-17T09:33:23.256Z,13.30
2022-10-17T09:36:04.532Z,12.10
2022-10-17T09:38:58.378Z,8.90
2022-10-17T09:41:49.509Z,12.80
2022-10-17T09:44:35.599Z,15.50
2022-10-17T09:47:35.210Z,12.30
2022-10-17T09:50:03.411Z,11.10
2022-10-17T09:52:47.851Z,14.90
2022-10-17T09:55:34.650Z,9.90
2022-10-17T09:58:05.742Z,10.30
2022-10-17T10:00:43.986Z,8.10
2022-10-17T10:03:26.546Z,9.00
2022-10-17T10:05:59.632Z,9.80
2022-10-17T10:08:36.605Z,10.80
2022-10-17T10:11:09.624Z,12.10
2022-10-17T10:13:43.373Z,12.50
2022-10-17T10:16:24.515Z,11.50
2022-10-17T10:18:52.909Z,10.30
2022-10-17T10:21:23.861Z,11.10
2022-10-17T10:24:10.408Z,10.10
2022-10-17T10:26:46.047Z,10.90
2022-10-17T10:29:32.922Z,10.50
2022-10-17T10:32:22.895Z,10.80
2022-10-17T10:34:54.147Z,11.50
2022-10-17T10:37:36.805Z,9.10
2022-10-17T10:40:15.689Z,11.70
2022-10-17T10:42:51.571Z,10.50
2022-10-17T10:45:46.431Z,11.00
2022-10-17T10:48:37.192Z,10.20
2022-10-17T10:51:19.801Z,9.80
2022-10-17T10:54:04.189Z,12.00
2022-10-17T10:56:43.913Z,10.10
2022-10-17T10:59:26.227Z,9.90
2022-10-17T11:01:56.692Z,11.20
2022-10-17T11:04:37.648Z,10.30
2022-10-17T11:07:28.908Z,9.50
2022-10-17T11:10:00.283Z,9.70
2022-10-17T11:12:35.380Z,10.70
2022-10-17T11:15:09.625Z,10.00
2022-10-17T11:17:51.212Z,10.60
2022-10-17T11:20:34.335Z,10.20
2022-10-17T11:23:29.005Z,9.40
2022-10-17T11:26:01.639Z,10.70
2022-10-17T11:28:31.000Z,10.90
2022-10-17T11:31:12.820Z,11.90
2022-10-17T11:33:46.958Z,9.20
2022-10-17T11:36:21.574Z,9.50
2022-10-17T11:39:01.841Z,10.90
2022-10-17T11:41:40.222Z,9.90
2022-10-17T11:44:23.574Z,9.80
2022-10-17T11:46:57.738Z,10.20
2022-10-17T11:49:36.857Z,10.90
2022-10-17T11:52:26.999Z,9.60
2022-10-17T11:55:23.219Z,10.40
2022-10-17T11:58:10.124Z,9.20
2022-10-17T12:01:13.034Z,10.10
2022-10-17T12:04:18.812Z,8.10
2022-10-17T12:07:17.900Z,7.70
2022-10-17T12:09:59.596Z,8.40
2022-10-17T12:12:31.260Z,8.40
2022-10-17T12:15:26.307Z,7.50
2022-10-17T12:17:59.312Z,6.80
2022-10-17T12:20:28.819Z,7.50
2022-10-17T12:23:12.059Z,6.90
2022-10-17T12:25:52.103Z,9.60
2022-10-17T12:28:34.495Z,7.30
2022-10-17T12:31:19.069Z,6.40
2022-10-17T12:33:49.972Z,7.50
2022-10-17T12:36:27.007Z,7.30
2022-10-17T12:39:04.348Z,9.90
2022-10-17T12:41:38.140Z,7.40
2022-10-17T12:44:15.516Z,7.00
2022-10-17T12:46:49.504Z,6.80
2022-10-17T12:49:38.397Z,7.20
2022-10-17T12:52:23.787Z,5.80
2022-10-17T12:55:07.447Z,6.70
2022-10-17T12:58:05.126Z,9.80
2022-10-17T13:00:59.513Z,6.10
2022-10-17T13:03:35.297Z,5.80
2022-10-17T13:06:06.908Z,14.10
2022-10-17T13:08:43.423Z,6.30
2022-10-17T13:11:13.751Z,5.10
2022-10-17T13:13:48.981Z,4.40
2022-10-17T13:16:40.195Z,4.40
2022-10-17T13:19:16.845Z,4.20
2022-10-17T13:22:05.991Z,5.00
2022-10-17T13:24:40.860Z,3.80
2022-10-17T13:27:32.152Z,4.50
2022-10-17T13:30:31.104Z,4.40
2022-10-17T13:33:02.023Z,3.40
2022-10-17T13:35:59.081Z,4.30
2022-10-17T13:38:28.482Z,4.80
2022-10-17T13:41:22.947Z,6.00
2022-10-17T13:43:50.641Z,4.70
2022-10-17T13:46:38.978Z,5.40
2022-10-17T13:49:18.109Z,6.10
2022-10-17T13:51:50.257Z,8.20
2022-10-17T13:54:33.688Z,4.60
2022-10-17T13:57:03.173Z,6.70
2022-10-17T13:59:39.849Z,4.80
2022-10-17T14:02:16.402Z,5.40
2022-10-17T14:05:14.921Z,5.70
2022-10-17T14:08:22.046Z,5.70
2022-10-17T14:10:50.548Z,9.10
2022-10-17T14:13:25.273Z,5.80
2022-10-17T14:15:56.408Z,6.60
2022-10-17T14:18:35.897Z,5.00
2022-10-17T14:24:34.166Z,9.30
2022-10-17T14:27:02.286Z,13.70
2022-10-17T14:29:33.296Z,7.40
2022-10-17T14:32:06.458Z,11.50
2022-10-17T14:34:37.702Z,11.20
2022-10-17T14:37:24.476Z,8.30
2022-10-17T14:39:55.158Z,16.40
2022-10-17T14:42:23.455Z,24.60
2022-10-17T14:44:54.467Z,21.10
2022-10-17T14:47:44.014Z,22.50
2022-10-17T14:50:12.928Z,13.60
2022-10-17T14:52:43.235Z,12.60
2022-10-17T14:55:24.307Z,12.50
2022-10-17T14:57:52.661Z,10.80
2022-10-17T15:00:22.704Z,17.50
2022-10-17T15:02:52.688Z,17.30
2022-10-17T15:05:23.189Z,18.00
2022-10-17T15:07:51.928Z,13.40
2022-10-17T15:10:33.368Z,11.50
2022-10-17T15:13:27.237Z,12.70
2022-10-17T15:15:52.473Z,11.60
2022-10-17T15:18:20.717Z,10.70
2022-10-17T15:20:55.284Z,8.80
2022-10-17T15:23:32.779Z,16.50
2022-10-17T15:26:01.863Z,19.60
2022-10-17T15:28:29.893Z,15.30
2022-10-17T15:30:57.980Z,16.90
2022-10-17T15:33:25.999Z,9.30
2022-10-17T15:35:54.110Z,9.00
2022-10-17T15:38:22.154Z,14.20
2022-10-17T15:40:52.029Z,7.70
2022-10-17T15:43:20.227Z,24.60
2022-10-17T15:45:48.757Z,19.90
2022-10-17T15:48:30.279Z,6.70
2022-10-17T15:50:58.708Z,5.90
2022-10-17T15:53:27.199Z,6.20
2022-10-17T15:55:57.654Z,6.20
2022-10-17T15:58:28.563Z,10.10
2022-10-17T16:00:56.800Z,8.70
2022-10-17T16:03:24.891Z,12.80
2022-10-17T16:05:52.882Z,10.90
2022-10-17T16:08:20.916Z,10.70
2022-10-17T16:10:49.538Z,13.80
2022-10-17T16:13:20.963Z,12.20
2022-10-17T16:15:49.356Z,10.60
2022-10-17T16:18:17.454Z,12.00
2022-10-17T16:20:45.377Z,14.90
2022-10-17T16:23:14.628Z,10.50
2022-10-17T16:25:43.142Z,15.50
2022-10-17T16:28:12.155Z,20.00
2022-10-17T16:30:44.932Z,15.20
2022-10-17T16:33:13.548Z,14.60
2022-10-17T16:35:41.945Z,17.50
2022-10-17T16:38:09.986Z,20.70
2022-10-17T16:40:39.539Z,18.00
2022-10-17T16:43:12.040Z,22.70
2022-10-17T16:48:10.092Z,22.50
2022-10-17T16:50:41.226Z,18.70
2022-10-17T16:53:09.360Z,17.80
2022-10-17T16:55:38.288Z,15.60
2022-10-17T16:58:06.542Z,14.90
2022-10-17T17:00:35.934Z,15.10
2022-10-17T17:03:04.031Z,14.20
2022-10-17T17:05:31.949Z,19.20
2022-10-17T17:08:01.040Z,14.80
2022-10-17T17:10:32.084Z,12.90
2022-10-17T17:13:01.812Z,12.20
2022-10-17T17:15:30.176Z,13.40
2022-10-17T17:18:02.669Z,12.60
2022-10-17T17:20:33.954Z,11.20
2022-10-17T17:23:02.144Z,12.40
2022-10-17T17:25:30.210Z,12.10
2022-10-17T17:27:58.270Z,14.00
2022-10-17T17:30:26.361Z,20.10
2022-10-17T17:32:54.449Z,16.80
2022-10-17T17:35:22.541Z,23.80
2022-10-17T17:37:50.734Z,20.30
2022-10-17T17:40:18.823Z,17.00
2022-10-17T17:42:46.948Z,20.60
2022-10-17T17:45:15.305Z,15.60
2022-10-17T17:47:43.681Z,17.40
2022-10-17T17:50:11.692Z,18.70
2022-10-17T17:52:42.067Z,19.20
2022-10-17T17:55:10.308Z,17.10
2022-10-17T17:57:38.867Z,20.00
2022-10-17T18:00:07.719Z,19.00
2022-10-17T18:02:39.580Z,28.20
2022-10-17T18:05:10.329Z,26.10
2022-10-17T18:07:38.320Z,27.10
2022-10-17T18:10:07.039Z,27.20
2022-10-17T18:12:35.082Z,26.60
2022-10-17T18:15:04.856Z,23.40
2022-10-17T18:17:33.218Z,26.00
2022-10-17T18:20:02.780Z,30.90
2022-10-17T18:22:31.165Z,29.10
2022-10-17T18:24:59.711Z,23.40
2022-10-17T18:27:27.902Z,26.70
2022-10-17T18:29:56.084Z,21.30
2022-10-17T18:32:24.576Z,21.30
2022-10-17T18:34:52.749Z,20.00
2022-10-17T18:37:20.931Z,28.80
2022-10-17T18:39:51.710Z,29.70
2022-10-17T18:42:20.497Z,20.10
2022-10-17T18:44:48.836Z,17.30
2022-10-17T18:47:16.902Z,18.70
2022-10-17T18:49:45.202Z,24.70
2022-10-17T18:52:13.241Z,18.00
2022-10-17T18:54:41.236Z,26.50
2022-10-17T18:57:09.315Z,19.90
2022-10-17T18:59:37.695Z,31.10
2022-10-17T19:02:06.540Z,30.30
2022-10-17T19:04:35.075Z,22.30
2022-10-17T19:07:03.253Z,28.90
2022-10-17T19:09:31.692Z,30.20
2022-10-17T19:12:00.519Z,25.90
2022-10-17T19:14:30.594Z,21.80
2022-10-17T19:16:59.940Z,17.10
2022-10-17T19:19:28.200Z,27.60
2022-10-17T19:21:57.030Z,17.90
2022-10-17T19:24:27.133Z,31.80
2022-10-17T19:26:58.348Z,30.40
2022-10-17T19:29:28.498Z,31.50
2022-10-17T19:31:56.737Z,23.80
2022-10-17T19:34:25.146Z,19.60
2022-10-17T19:36:53.281Z,19.90
2022-10-17T19:39:23.831Z,20.10
2022-10-17T19:41:52.349Z,29.40
2022-10-17T19:44:20.466Z,26.00
2022-10-17T19:46:49.378Z,18.30
2022-10-17T19:49:18.254Z,26.20
2022-10-17T19:51:46.760Z,33.10
2022-10-17T19:54:18.334Z,29.70
2022-10-17T19:56:47.252Z,23.20
2022-10-17T19:59:17.167Z,17.30
2022-10-17T20:01:45.890Z,30.10
2022-10-17T20:04:14.410Z,20.60
2022-10-17T20:06:42.754Z,19.10
2022-10-17T20:09:17.244Z,28.60
2022-10-17T20:11:45.986Z,20.10
2022-10-17T20:14:14.346Z,26.40
2022-10-17T20:16:49.982Z,17.90
2022-10-17T20:19:18.525Z,28.10
2022-10-17T20:21:46.774Z,28.50
2022-10-17T20:24:17.058Z,29.00
2022-10-17T20:26:46.302Z,27.20
2022-10-17T20:29:19.318Z,17.00
2022-10-17T20:31:48.580Z,16.10
2022-10-17T20:34:19.005Z,18.70
2022-10-17T20:36:47.906Z,24.00
2022-10-17T20:39:18.596Z,24.80
2022-10-17T20:41:47.205Z,24.70
2022-10-17T20:44:15.918Z,20.10
2022-10-17T20:47:00.559Z,26.40
2022-10-17T20:49:30.597Z,26.70
2022-10-17T20:52:01.444Z,27.20
2022-10-17T20:54:29.907Z,21.80
2022-10-17T20:57:01.073Z,27.40
2022-10-17T20:59:32.598Z,31.20
2022-10-17T21:02:00.980Z,28.60
2022-10-17T21:04:47.208Z,24.60
2022-10-17T21:07:16.089Z,29.40
2022-10-17T21:09:45.638Z,30.80
2022-10-17T21:12:21.653Z,19.30
2022-10-17T21:15:00.428Z,17.00
2022-10-17T21:17:28.854Z,15.00
2022-10-17T21:19:57.088Z,16.90
2022-10-17T21:22:25.442Z,19.70
2022-10-17T21:24:53.616Z,22.90
2022-10-17T21:27:21.839Z,18.30
2022-10-17T21:29:50.053Z,21.50
2022-10-17T21:32:32.006Z,21.30
2022-10-17T21:35:06.910Z,21.30
2022-10-17T21:37:34.896Z,13.70
2022-10-17T21:40:03.126Z,13.50
2022-10-17T21:42:31.375Z,20.10
2022-10-17T21:44:59.619Z,15.20
2022-10-17T21:47:29.713Z,14.60
2022-10-17T21:49:58.109Z,12.70
2022-10-17T21:52:26.166Z,15.50
2022-10-17T21:54:54.339Z,13.10
2022-10-17T21:57:22.409Z,13.60
2022-10-17T21:59:50.413Z,13.80
2022-10-17T22:02:18.804Z,22.80
2022-10-17T22:04:46.884Z,17.00
2022-10-17T22:07:15.333Z,20.70
2022-10-17T22:09:43.420Z,19.60
2022-10-17T22:12:11.736Z,20.70
2022-10-17T22:14:39.826Z,18.10
2022-10-17T22:17:08.055Z,11.50
2022-10-17T22:19:36.108Z,11.70
2022-10-17T22:22:04.352Z,13.30
2022-10-17T22:24:32.373Z,20.80
2022-10-17T22:27:00.461Z,19.80
2022-10-17T22:29:28.431Z,19.70
2022-10-17T22:31:56.451Z,21.70
2022-10-17T22:34:24.490Z,22.00
2022-10-17T22:36:52.507Z,19.20
2022-10-17T22:39:20.621Z,18.70
2022-10-17T22:41:48.694Z,11.70
2022-10-17T22:44:16.688Z,11.60
2022-10-17T22:46:44.799Z,20.60
2022-10-17T22:49:13.050Z,20.50
2022-10-17T22:51:41.112Z,19.80
2022-10-17T22:54:09.120Z,16.40
2022-10-17T22:56:37.189Z,11.60
2022-10-17T22:59:05.224Z,17.00
2022-10-17T23:01:33.551Z,15.50
2022-10-17T23:04:02.427Z,11.30
2022-10-17T23:06:30.726Z,21.00
2022-10-17T23:08:58.929Z,13.40
2022-10-17T23:11:26.981Z,10.80
2022-10-17T23:13:55.199Z,19.00
2022-10-17T23:16:23.417Z,18.90
2022-10-17T23:18:51.473Z,14.50
2022-10-17T23:21:19.546Z,19.00
2022-10-17T23:23:47.532Z,12.60
2022-10-17T23:26:15.609Z,17.40
2022-10-17T23:28:43.798Z,15.50
2022-10-17T23:31:15.472Z,16.80
2022-10-17T23:33:45.257Z,10.20
2022-10-17T23:36:15.667Z,11.30
2022-10-17T23:38:45.224Z,16.70
2022-10-17T23:41:14.181Z,17.40
2022-10-17T23:43:43.487Z,17.10
2022-10-17T23:46:12.194Z,17.80
2022-10-17T23:48:41.298Z,18.20
2022-10-17T23:51:10.497Z,15.50
2022-10-17T23:53:39.648Z,9.40
2022-10-17T23:56:08.350Z,9.80
2022-10-17T23:58:37.060Z,12.90
